createdAt,value
2018-05-07T00:00:01.254Z,42.91
2018-05-07T00:02:29.528Z,43.75
2018-05-07T00:04:57.799Z,43.47
2018-05-07T00:07:26.078Z,44.10
2018-05-07T00:09:54.350Z,43.88
2018-05-07T00:12:22.928Z,44.88
2018-05-07T00:14:51.193Z,44.51
2018-05-07T00:17:19.462Z,45.17
2018-05-07T00:19:47.738Z,46.05
2018-05-07T00:22:16.001Z,46.32
2018-05-07T00:24:44.276Z,46.22
2018-05-07T00:27:12.539Z,47.08
2018-05-07T00:29:40.822Z,46.78
2018-05-07T00:32:09.086Z,47.07
2018-05-07T00:34:37.371Z,47.43
2018-05-07T00:37:05.629Z,47.07
2018-05-07T00:39:33.889Z,47.30
2018-05-07T00:42:02.166Z,47.80
2018-05-07T00:44:30.434Z,47.44
2018-05-07T00:46:58.729Z,47.00
2018-05-07T00:49:26.993Z,47.63
2018-05-07T00:51:55.261Z,47.68
2018-05-07T00:54:23.534Z,47.82
2018-05-07T00:56:51.809Z,46.56
2018-05-07T00:59:20.953Z,48.02
2018-05-07T01:01:49.225Z,48.33
2018-05-07T01:04:17.501Z,47.73
2018-05-07T01:06:45.773Z,46.27
2018-05-07T01:09:14.041Z,46.40
2018-05-07T01:11:42.317Z,46.28
2018-05-07T01:14:10.581Z,45.52
2018-05-07T01:16:38.858Z,45.96
2018-05-07T01:19:07.117Z,46.74
2018-05-07T01:21:35.393Z,47.01
2018-05-07T01:24:03.670Z,46.91
2018-05-07T01:26:31.939Z,46.54
2018-05-07T01:29:00.214Z,46.79
2018-05-07T01:31:28.487Z,47.74
2018-05-07T01:33:56.762Z,47.49
2018-05-07T01:36:25.034Z,47.35
2018-05-07T01:38:53.309Z,47.83
2018-05-07T01:41:21.582Z,48.83
2018-05-07T01:43:49.845Z,48.80
2018-05-07T01:46:18.121Z,48.97
2018-05-07T01:48:50.793Z,48.72
2018-05-07T01:51:19.077Z,48.54
2018-05-07T01:53:47.345Z,49.42
2018-05-07T01:56:15.648Z,48.94
2018-05-07T01:58:43.914Z,49.75
2018-05-07T02:01:12.190Z,49.46
2018-05-07T02:03:40.479Z,48.99
2018-05-07T02:06:08.742Z,50.10
2018-05-07T02:08:37.015Z,50.98
2018-05-07T02:11:05.286Z,50.36
2018-05-07T02:13:33.569Z,49.97
2018-05-07T02:16:01.836Z,51.30
2018-05-07T02:18:30.106Z,51.18
2018-05-07T02:20:58.385Z,52.23
2018-05-07T02:23:26.662Z,51.72
2018-05-07T02:25:54.941Z,51.91
2018-05-07T02:28:23.222Z,52.09
2018-05-07T02:30:51.485Z,50.85
2018-05-07T02:33:19.766Z,51.45
2018-05-07T02:35:48.034Z,51.57
2018-05-07T02:38:16.305Z,52.10
2018-05-07T02:40:44.571Z,53.26
2018-05-07T02:43:12.836Z,52.62
2018-05-07T02:45:41.110Z,54.42
2018-05-07T02:48:09.374Z,53.81
2018-05-07T02:50:37.647Z,53.58
2018-05-07T02:53:05.915Z,53.82
2018-05-07T02:55:34.191Z,54.32
2018-05-07T02:58:02.461Z,53.58
2018-05-07T03:00:30.730Z,53.87
2018-05-07T03:02:59.004Z,53.54
2018-05-07T03:05:27.273Z,53.85
2018-05-07T03:07:55.550Z,54.74
2018-05-07T03:10:23.815Z,55.10
2018-05-07T03:12:52.104Z,54.64
2018-05-07T03:15:20.369Z,54.35
2018-05-07T03:17:48.641Z,54.70
2018-05-07T03:20:16.913Z,55.30
2018-05-07T03:22:45.177Z,54.74
2018-05-07T03:25:13.453Z,56.12
2018-05-07T03:27:41.717Z,55.54
2018-05-07T03:30:10.006Z,55.71
2018-05-07T03:32:38.277Z,56.15
2018-05-07T03:35:06.555Z,56.00
2018-05-07T03:37:34.819Z,56.64
2018-05-07T03:40:03.082Z,56.62
2018-05-07T03:42:31.357Z,56.40
2018-05-07T03:44:59.622Z,56.00
2018-05-07T03:47:27.913Z,56.76
2018-05-07T03:49:56.165Z,57.58
2018-05-07T03:52:24.431Z,57.62
2018-05-07T03:54:52.759Z,57.77
2018-05-07T03:57:20.980Z,57.34
2018-05-07T03:59:49.343Z,57.15
2018-05-07T04:02:17.522Z,57.85
2018-05-07T04:04:45.805Z,57.29
2018-05-07T04:07:14.136Z,58.03
2018-05-07T04:09:42.350Z,58.77
2018-05-07T04:12:10.625Z,59.14
2018-05-07T04:14:38.894Z,59.14
2018-05-07T04:17:18.948Z,58.87
2018-05-07T04:19:58.857Z,58.39
2018-05-07T04:22:38.881Z,57.99
2018-05-07T04:25:07.149Z,57.34
2018-05-07T04:27:35.425Z,58.55
2018-05-07T04:30:03.690Z,58.14
2018-05-07T04:32:31.980Z,59.24
2018-05-07T04:35:00.241Z,59.53
2018-05-07T04:37:28.507Z,59.67
2018-05-07T04:39:56.782Z,59.25
2018-05-07T04:42:25.054Z,59.88
2018-05-07T04:44:53.330Z,60.62
2018-05-07T04:47:21.594Z,60.56
2018-05-07T04:49:49.873Z,59.73
2018-05-07T04:52:18.138Z,59.55
2018-05-07T04:54:46.406Z,59.55
2018-05-07T04:57:14.677Z,59.65
2018-05-07T04:59:42.949Z,59.96
2018-05-07T05:02:11.221Z,59.92
2018-05-07T05:04:39.489Z,59.46
2018-05-07T05:07:07.782Z,59.77
2018-05-07T05:09:36.038Z,59.57
2018-05-07T05:12:04.306Z,58.64
2018-05-07T05:14:33.381Z,59.00
2018-05-07T05:17:01.649Z,59.27
2018-05-07T05:19:29.921Z,59.34
2018-05-07T05:21:58.193Z,58.85
2018-05-07T05:24:26.476Z,58.59
2018-05-07T05:26:54.743Z,57.94
2018-05-07T05:29:23.009Z,58.47
2018-05-07T05:31:51.297Z,58.49
2018-05-07T05:34:19.562Z,59.40
2018-05-07T05:36:47.838Z,58.23
2018-05-07T05:39:16.105Z,58.01
2018-05-07T05:41:44.405Z,57.80
2018-05-07T05:44:12.678Z,57.65
2018-05-07T05:46:40.941Z,57.60
2018-05-07T05:49:09.217Z,56.99
2018-05-07T05:51:37.483Z,56.91
2018-05-07T05:54:05.761Z,56.71
2018-05-07T05:56:34.027Z,57.19
2018-05-07T05:59:02.321Z,56.34
2018-05-07T06:01:30.591Z,55.55
2018-05-07T06:03:58.900Z,57.00
2018-05-07T06:06:27.143Z,56.28
2018-05-07T06:08:55.482Z,56.37
2018-05-07T06:11:23.747Z,56.40
2018-05-07T06:13:52.002Z,55.60
2018-05-07T06:16:20.278Z,55.53
2018-05-07T06:18:48.549Z,56.10
2018-05-07T06:21:16.895Z,55.65
2018-05-07T06:23:46.202Z,56.02
2018-05-07T06:26:14.500Z,55.68
2018-05-07T06:28:42.817Z,55.43
2018-05-07T06:31:11.087Z,55.02
2018-05-07T06:33:39.373Z,54.92
2018-05-07T06:36:07.635Z,54.45
2018-05-07T06:38:35.986Z,54.23
2018-05-07T06:41:05.225Z,55.78
2018-05-07T06:43:33.497Z,52.68
2018-05-07T06:46:01.917Z,50.56
2018-05-07T06:48:30.202Z,48.80
2018-05-07T06:50:58.695Z,51.36
2018-05-07T06:53:27.070Z,48.63
2018-05-07T06:55:55.349Z,49.47
2018-05-07T06:58:23.884Z,46.69
2018-05-07T07:00:52.153Z,48.41
2018-05-07T07:03:20.495Z,47.03
2018-05-07T07:05:48.750Z,46.83
2018-05-07T07:08:17.123Z,45.01
2018-05-07T07:10:45.330Z,43.85
2018-05-07T07:13:13.595Z,43.07
2018-05-07T07:15:41.870Z,43.62
2018-05-07T07:18:10.142Z,42.97
2018-05-07T07:20:38.422Z,43.18
2018-05-07T07:23:06.689Z,41.37
2018-05-07T07:25:34.968Z,41.91
2018-05-07T07:28:03.295Z,39.74
2018-05-07T07:30:31.498Z,38.63
2018-05-07T07:32:59.798Z,38.10
2018-05-07T07:35:28.041Z,37.52
2018-05-07T07:37:56.313Z,38.65
2018-05-07T07:40:24.587Z,38.15
2018-05-07T07:42:52.878Z,37.90
2018-05-07T07:45:21.189Z,38.91
2018-05-07T07:47:49.491Z,37.19
2018-05-07T07:50:17.764Z,35.77
2018-05-07T07:52:46.031Z,34.02
2018-05-07T07:55:14.306Z,34.46
2018-05-07T07:57:42.574Z,35.66
2018-05-07T08:00:10.918Z,34.02
2018-05-07T08:02:39.170Z,33.17
2018-05-07T08:05:07.437Z,34.73
2018-05-07T08:07:35.714Z,34.14
2018-05-07T08:10:04.000Z,34.24
2018-05-07T08:12:32.294Z,34.51
2018-05-07T08:15:00.570Z,34.77
2018-05-07T08:17:28.849Z,33.95
2018-05-07T08:19:57.120Z,34.48
2018-05-07T08:22:25.395Z,35.04
2018-05-07T08:24:53.676Z,33.82
2018-05-07T08:27:21.975Z,33.84
2018-05-07T08:29:50.245Z,32.14
2018-05-07T08:32:18.510Z,32.71
2018-05-07T08:34:46.800Z,32.22
2018-05-07T08:37:15.084Z,31.03
2018-05-07T08:39:43.345Z,31.33
2018-05-07T08:42:11.631Z,31.23
2018-05-07T08:44:39.913Z,30.71
2018-05-07T08:47:08.194Z,32.18
2018-05-07T08:49:36.468Z,32.45
2018-05-07T08:52:04.750Z,32.39
2018-05-07T08:54:33.101Z,32.42
2018-05-07T08:57:01.375Z,31.17
2018-05-07T08:59:29.650Z,29.28
2018-05-07T09:01:57.923Z,29.80
2018-05-07T09:04:26.212Z,28.69
2018-05-07T09:06:54.482Z,28.93
2018-05-07T09:09:22.766Z,28.82
2018-05-07T09:11:51.043Z,28.08
2018-05-07T09:14:19.314Z,28.54
2018-05-07T09:16:48.588Z,28.26
2018-05-07T09:19:16.845Z,28.30
2018-05-07T09:21:45.273Z,27.57
2018-05-07T09:24:13.515Z,27.02
2018-05-07T09:26:41.802Z,27.56
2018-05-07T09:29:10.075Z,28.59
2018-05-07T09:31:38.363Z,27.60
2018-05-07T09:34:06.654Z,28.26
2018-05-07T09:36:34.959Z,27.74
2018-05-07T09:39:07.863Z,27.84
2018-05-07T09:41:36.132Z,27.33
2018-05-07T09:44:04.406Z,27.87
2018-05-07T09:46:32.690Z,27.75
2018-05-07T09:49:01.345Z,28.87
2018-05-07T09:51:29.603Z,28.48
2018-05-07T09:53:57.878Z,28.30
2018-05-07T09:56:26.166Z,27.00
2018-05-07T09:58:59.274Z,28.02
2018-05-07T10:01:27.561Z,27.01
2018-05-07T10:03:55.949Z,26.81
2018-05-07T10:06:24.232Z,26.01
2018-05-07T10:08:52.584Z,26.71
2018-05-07T10:11:20.889Z,25.98
2018-05-07T10:13:49.462Z,26.23
2018-05-07T10:16:17.822Z,25.71
2018-05-07T10:18:48.067Z,25.60
2018-05-07T10:21:16.391Z,25.31
2018-05-07T10:23:47.213Z,25.21
2018-05-07T10:26:15.618Z,24.76
2018-05-07T10:28:43.895Z,24.50
2018-05-07T10:31:12.487Z,25.08
2018-05-07T10:33:40.917Z,24.56
2018-05-07T10:36:09.198Z,24.71
2018-05-07T10:38:37.534Z,24.97
2018-05-07T10:41:06.217Z,24.88
2018-05-07T10:43:34.489Z,25.18
2018-05-07T10:46:02.764Z,24.29
2018-05-07T10:48:31.034Z,26.03
2018-05-07T10:50:59.314Z,24.73
2018-05-07T10:53:27.595Z,24.61
2018-05-07T10:55:55.859Z,24.79
2018-05-07T10:58:24.405Z,26.10
2018-05-07T11:00:52.680Z,24.91
2018-05-07T11:03:20.962Z,25.26
2018-05-07T11:05:49.239Z,25.37
2018-05-07T11:08:17.670Z,25.81
2018-05-07T11:10:45.954Z,24.66
2018-05-07T11:13:14.225Z,25.09
2018-05-07T11:15:42.513Z,25.25
2018-05-07T11:18:10.785Z,25.66
2018-05-07T11:20:39.062Z,25.07
2018-05-07T11:23:07.342Z,25.72
2018-05-07T11:25:35.613Z,25.59
2018-05-07T11:28:03.889Z,25.49
2018-05-07T11:30:32.166Z,24.88
2018-05-07T11:33:00.441Z,25.02
2018-05-07T11:35:28.719Z,24.65
2018-05-07T11:37:57.003Z,24.93
2018-05-07T11:40:25.282Z,25.04
2018-05-07T11:42:53.565Z,25.97
2018-05-07T11:45:21.845Z,24.63
2018-05-07T11:47:50.115Z,25.32
2018-05-07T11:50:18.394Z,25.14
2018-05-07T11:52:46.677Z,25.54
2018-05-07T11:55:14.959Z,23.78
2018-05-07T11:57:43.234Z,24.64
2018-05-07T12:00:11.512Z,25.69
2018-05-07T12:02:39.801Z,25.43
2018-05-07T12:05:08.058Z,23.99
2018-05-07T12:07:36.370Z,24.96
2018-05-07T12:10:04.637Z,24.48
2018-05-07T12:12:32.905Z,23.03
2018-05-07T12:15:01.178Z,22.28
2018-05-07T12:17:29.450Z,22.98
2018-05-07T12:19:57.729Z,22.35
2018-05-07T12:22:25.998Z,21.47
2018-05-07T12:24:54.295Z,22.94
2018-05-07T12:27:22.563Z,23.84
2018-05-07T12:29:50.831Z,23.85
2018-05-07T12:32:19.106Z,24.05
2018-05-07T12:34:47.381Z,23.92
2018-05-07T12:37:15.674Z,23.70
2018-05-07T12:39:43.950Z,24.61
2018-05-07T12:42:12.238Z,22.70
2018-05-07T12:44:40.592Z,23.03
2018-05-07T12:47:08.858Z,23.14
2018-05-07T12:49:37.136Z,24.00
2018-05-07T12:52:05.705Z,23.18
2018-05-07T12:57:37.106Z,21.58
2018-05-07T13:00:05.427Z,22.44
2018-05-07T13:02:33.690Z,21.83
2018-05-07T13:05:01.970Z,21.77
2018-05-07T13:07:30.245Z,22.60
2018-05-07T13:09:58.540Z,22.20
2018-05-07T13:12:26.814Z,22.55
2018-05-07T13:14:55.094Z,21.16
2018-05-07T13:17:23.381Z,23.33
2018-05-07T13:19:51.663Z,23.43
2018-05-07T13:22:19.957Z,23.20
2018-05-07T13:24:48.245Z,22.56
2018-05-07T13:27:16.522Z,24.24
2018-05-07T13:29:44.802Z,23.87
2018-05-07T13:32:13.070Z,24.11
2018-05-07T13:34:41.643Z,24.82
2018-05-07T13:37:09.920Z,22.95
2018-05-07T13:39:38.982Z,24.01
2018-05-07T13:42:07.261Z,23.30
2018-05-07T13:44:35.541Z,21.94
2018-05-07T13:47:03.814Z,23.04
2018-05-07T13:49:32.107Z,22.89
2018-05-07T13:52:00.775Z,23.16
2018-05-07T13:54:29.070Z,22.62
2018-05-07T13:56:57.491Z,23.57
2018-05-07T13:59:25.685Z,22.42
2018-05-07T14:01:53.951Z,22.84
2018-05-07T14:04:22.270Z,23.49
2018-05-07T14:06:50.550Z,23.17
2018-05-07T14:09:18.837Z,22.83
2018-05-07T14:11:47.120Z,22.52
2018-05-07T14:14:15.390Z,23.18
2018-05-07T14:16:43.696Z,23.03
2018-05-07T14:19:11.943Z,23.64
2018-05-07T14:21:40.365Z,23.02
2018-05-07T14:24:08.646Z,22.75
2018-05-07T14:26:36.939Z,23.98
2018-05-07T14:29:05.219Z,23.92
2018-05-07T14:31:33.507Z,24.14
2018-05-07T14:34:01.791Z,23.20
2018-05-07T14:36:30.059Z,23.83
2018-05-07T14:38:58.350Z,23.72
2018-05-07T14:41:26.619Z,24.16
2018-05-07T14:43:54.943Z,24.37
2018-05-07T14:46:23.218Z,24.55
2018-05-07T14:48:51.509Z,23.63
2018-05-07T14:51:19.785Z,23.03
2018-05-07T14:53:48.060Z,23.68
2018-05-07T14:56:16.342Z,23.82
2018-05-07T14:58:44.668Z,23.86
2018-05-07T15:01:12.897Z,24.36
2018-05-07T15:03:41.170Z,23.63
2018-05-07T15:06:09.442Z,24.66
2018-05-07T15:08:37.721Z,24.74
2018-05-07T15:11:05.989Z,24.13
2018-05-07T15:13:34.290Z,25.05
2018-05-07T15:16:02.542Z,25.13
2018-05-07T15:18:30.830Z,25.79
2018-05-07T15:20:59.101Z,24.79
2018-05-07T15:23:27.405Z,25.13
2018-05-07T15:25:55.978Z,24.50
2018-05-07T15:28:24.250Z,24.51
2018-05-07T15:30:52.536Z,24.53
2018-05-07T15:36:17.579Z,24.95
2018-05-07T15:38:45.806Z,25.31
2018-05-07T15:41:14.102Z,24.96
2018-05-07T15:43:42.483Z,25.02
2018-05-07T15:46:10.667Z,24.55
2018-05-07T15:48:38.939Z,25.20
2018-05-07T15:51:07.218Z,24.88
2018-05-07T15:53:35.490Z,24.35
2018-05-07T15:56:03.921Z,24.55
2018-05-07T15:58:32.043Z,24.89
2018-05-07T16:01:00.340Z,25.03
2018-05-07T16:03:28.618Z,25.21
2018-05-07T16:05:56.894Z,25.24
2018-05-07T16:08:25.174Z,24.89
2018-05-07T16:10:53.443Z,24.57
2018-05-07T16:13:21.718Z,24.24
2018-05-07T16:15:49.999Z,25.04
2018-05-07T16:18:18.290Z,25.59
2018-05-07T16:20:46.586Z,25.20
2018-05-07T16:23:14.958Z,25.07
2018-05-07T16:25:43.172Z,25.43
2018-05-07T16:28:11.456Z,25.15
2018-05-07T16:30:41.199Z,25.53
2018-05-07T16:33:09.495Z,25.66
2018-05-07T16:35:37.757Z,26.33
2018-05-07T16:38:06.036Z,25.39
2018-05-07T16:40:34.313Z,25.19
2018-05-07T16:43:02.583Z,25.92
2018-05-07T16:45:30.879Z,26.09
2018-05-07T16:47:59.148Z,26.37
2018-05-07T16:50:27.463Z,26.71
2018-05-07T16:52:55.746Z,26.57
2018-05-07T16:55:24.026Z,26.71
2018-05-07T16:57:52.295Z,27.15
2018-05-07T17:00:20.601Z,26.84
2018-05-07T17:02:48.882Z,26.94
2018-05-07T17:05:17.161Z,27.00
2018-05-07T17:07:45.498Z,27.27
2018-05-07T17:10:13.766Z,27.80
2018-05-07T17:12:42.041Z,27.42
2018-05-07T17:15:13.143Z,26.90
2018-05-07T17:17:41.427Z,27.40
2018-05-07T17:20:09.711Z,27.92
2018-05-07T17:22:37.994Z,28.33
2018-05-07T17:25:06.437Z,27.87
2018-05-07T17:27:34.710Z,27.75
2018-05-07T17:30:03.106Z,27.83
2018-05-07T17:32:31.299Z,28.48
2018-05-07T17:34:59.574Z,28.00
2018-05-07T17:37:27.854Z,28.82
2018-05-07T17:39:56.123Z,29.15
2018-05-07T17:42:24.410Z,28.44
2018-05-07T17:48:10.869Z,28.18
2018-05-07T17:50:39.118Z,27.77
2018-05-07T17:53:07.419Z,27.72
2018-05-07T17:55:35.690Z,29.14
2018-05-07T17:58:03.978Z,28.83
2018-05-07T18:00:32.254Z,29.05
2018-05-07T18:03:00.695Z,29.12
2018-05-07T18:05:29.063Z,29.85
2018-05-07T18:07:57.326Z,29.46
2018-05-07T18:10:25.623Z,30.21
2018-05-07T18:12:53.898Z,30.69
2018-05-07T18:15:22.174Z,31.22
2018-05-07T18:17:50.440Z,29.99
2018-05-07T18:20:18.731Z,28.65
2018-05-07T18:22:47.006Z,30.77
2018-05-07T18:25:15.275Z,31.19
2018-05-07T18:27:43.564Z,31.12
2018-05-07T18:30:11.835Z,31.63
2018-05-07T18:32:40.102Z,31.75
2018-05-07T18:35:08.399Z,32.15
2018-05-07T18:37:36.674Z,32.47
2018-05-07T18:40:04.947Z,32.87
2018-05-07T18:42:33.242Z,32.73
2018-05-07T18:45:01.522Z,33.39
2018-05-07T18:47:29.798Z,33.29
2018-05-07T18:49:58.092Z,33.46
2018-05-07T18:52:26.433Z,33.81
2018-05-07T18:54:54.723Z,33.68
2018-05-07T18:57:23.019Z,34.71
2018-05-07T18:59:51.297Z,35.56
2018-05-07T19:02:19.658Z,35.39
2018-05-07T19:04:47.964Z,35.30
2018-05-07T19:07:16.239Z,35.11
2018-05-07T19:09:44.523Z,35.58
2018-05-07T19:12:12.811Z,35.38
2018-05-07T19:14:41.085Z,35.79
2018-05-07T19:17:09.370Z,35.43
2018-05-07T19:19:37.713Z,35.42
2018-05-07T19:22:06.450Z,35.21
2018-05-07T19:24:34.728Z,35.42
2018-05-07T19:27:03.026Z,35.41
2018-05-07T19:29:31.299Z,37.23
2018-05-07T19:31:59.570Z,36.46
2018-05-07T19:34:27.866Z,36.58
2018-05-07T19:36:56.136Z,36.38
2018-05-07T19:39:24.405Z,37.08
2018-05-07T19:41:52.713Z,37.23
2018-05-07T19:44:20.982Z,37.01
2018-05-07T19:46:49.262Z,37.87
2018-05-07T19:49:17.550Z,38.22
2018-05-07T19:51:46.194Z,38.24
2018-05-07T19:54:14.465Z,38.12
2018-05-07T19:56:42.758Z,39.03
2018-05-07T19:59:11.023Z,39.81
2018-05-07T20:01:39.306Z,39.87
2018-05-07T20:04:07.595Z,40.45
2018-05-07T20:06:35.890Z,39.78
2018-05-07T20:09:04.155Z,40.89
2018-05-07T20:11:32.442Z,40.74
2018-05-07T20:14:00.715Z,41.30
2018-05-07T20:16:28.985Z,41.63
2018-05-07T20:18:57.287Z,41.05
2018-05-07T20:21:25.573Z,41.39
2018-05-07T20:23:53.861Z,42.11
2018-05-07T20:26:22.148Z,42.04
2018-05-07T20:28:50.427Z,41.55
2018-05-07T20:31:18.695Z,41.08
2018-05-07T20:33:46.974Z,41.91
2018-05-07T20:36:15.242Z,42.25
2018-05-07T20:38:43.527Z,41.92
2018-05-07T20:41:11.813Z,42.72
2018-05-07T20:43:40.082Z,41.54
2018-05-07T20:46:08.361Z,42.14
2018-05-07T20:48:36.890Z,42.02
2018-05-07T20:51:05.163Z,40.42
2018-05-07T20:53:33.458Z,40.19
2018-05-07T20:56:01.738Z,37.48
2018-05-07T20:58:30.021Z,38.12
2018-05-07T21:00:58.293Z,37.23
2018-05-07T21:03:26.606Z,37.25
2018-05-07T21:05:54.882Z,36.73
2018-05-07T21:08:23.156Z,36.95
2018-05-07T21:10:51.442Z,36.90
2018-05-07T21:13:19.723Z,36.92
2018-05-07T21:15:48.002Z,37.09
2018-05-07T21:18:16.291Z,37.31
2018-05-07T21:20:44.562Z,36.93
2018-05-07T21:23:12.834Z,36.90
2018-05-07T21:25:41.153Z,36.83
2018-05-07T21:28:09.422Z,36.98
2018-05-07T21:30:37.711Z,37.16
2018-05-07T21:33:06.002Z,36.96
2018-05-07T21:35:34.274Z,37.07
2018-05-07T21:38:02.560Z,36.99
2018-05-07T21:40:30.850Z,36.56
2018-05-07T21:42:59.118Z,37.21
2018-05-07T21:45:27.393Z,37.37
2018-05-07T21:47:55.682Z,37.74
2018-05-07T21:50:23.958Z,38.07
2018-05-07T21:52:52.232Z,37.94
2018-05-07T21:55:20.519Z,38.30
2018-05-07T21:57:48.794Z,37.96
2018-05-07T22:00:17.062Z,37.92
2018-05-07T22:02:45.350Z,37.88
2018-05-07T22:05:13.633Z,38.36
2018-05-07T22:07:41.919Z,38.23
2018-05-07T22:10:10.220Z,39.21
2018-05-07T22:12:38.486Z,38.84
2018-05-07T22:15:06.764Z,38.33
2018-05-07T22:17:35.122Z,38.27
2018-05-07T22:20:03.414Z,38.94
2018-05-07T22:22:31.699Z,38.93
2018-05-07T22:24:59.972Z,39.03
2018-05-07T22:27:28.255Z,38.60
2018-05-07T22:29:56.518Z,39.31
2018-05-07T22:32:24.809Z,40.31
2018-05-07T22:34:53.080Z,40.55
2018-05-07T22:37:21.340Z,41.09
2018-05-07T22:39:49.645Z,41.36
2018-05-07T22:42:17.893Z,41.10
2018-05-07T22:44:46.184Z,41.61
2018-05-07T22:47:14.465Z,42.12
2018-05-07T22:49:42.835Z,42.23
2018-05-07T22:52:11.132Z,42.67
2018-05-07T22:54:39.306Z,43.20
2018-05-07T22:57:07.594Z,42.59
2018-05-07T22:59:35.871Z,43.04
2018-05-07T23:02:04.142Z,43.52
2018-05-07T23:04:32.426Z,43.79
2018-05-07T23:07:00.698Z,43.85
2018-05-07T23:09:28.986Z,44.32
2018-05-07T23:11:57.258Z,44.60
2018-05-07T23:14:25.566Z,44.87
2018-05-07T23:16:53.822Z,44.98
2018-05-07T23:19:22.093Z,44.95
2018-05-07T23:21:50.458Z,45.25
2018-05-07T23:24:18.731Z,45.82
2018-05-07T23:26:47.003Z,46.31
2018-05-07T23:29:15.288Z,45.95
2018-05-07T23:31:43.556Z,46.12
2018-05-07T23:34:11.847Z,46.83
2018-05-07T23:36:40.119Z,47.75
2018-05-07T23:39:08.386Z,47.07
2018-05-07T23:41:36.666Z,47.33
2018-05-07T23:44:04.940Z,47.38
2018-05-07T23:46:33.207Z,48.14
2018-05-07T23:49:01.482Z,47.43
2018-05-07T23:51:29.770Z,48.99
2018-05-07T23:53:58.043Z,48.22
2018-05-07T23:56:26.321Z,47.90
2018-05-07T23:58:54.694Z,49.21
